createdAt,value
2022-11-05T00:01:23.759Z,11.00
2022-11-05T00:04:43.499Z,10.94
2022-11-05T00:08:09.382Z,10.96
2022-11-05T00:11:17.694Z,10.96
2022-11-05T00:14:38.011Z,10.96
2022-11-05T00:17:40.274Z,10.95
2022-11-05T00:20:41.691Z,10.90
2022-11-05T00:24:01.589Z,10.89
2022-11-05T00:27:03.340Z,10.90
2022-11-05T00:30:05.645Z,10.88
2022-11-05T00:33:07.175Z,10.90
2022-11-05T00:36:10.836Z,10.94
2022-11-05T00:39:12.212Z,10.87
2022-11-05T00:42:32.030Z,10.83
2022-11-05T00:45:33.461Z,10.86
2022-11-05T00:48:53.490Z,10.84
2022-11-05T00:52:14.874Z,10.80
2022-11-05T00:55:16.362Z,10.82
2022-11-05T00:58:20.200Z,10.81
2022-11-05T01:01:21.625Z,10.75
2022-11-05T01:04:23.193Z,10.72
2022-11-05T01:07:24.576Z,10.76
2022-11-05T01:10:26.380Z,10.73
2022-11-05T01:13:30.668Z,10.75
2022-11-05T01:16:32.429Z,10.69
2022-11-05T01:19:33.816Z,10.68
2022-11-05T01:22:35.315Z,10.69
2022-11-05T01:25:36.791Z,10.75
2022-11-05T01:28:38.289Z,10.67
2022-11-05T01:31:39.704Z,10.67
2022-11-05T01:34:41.096Z,10.65
2022-11-05T01:37:43.012Z,10.67
2022-11-05T01:40:44.863Z,10.69
2022-11-05T01:43:51.273Z,10.68
2022-11-05T01:46:52.890Z,10.68
2022-11-05T01:49:55.308Z,10.70
2022-11-05T01:53:08.415Z,10.67
2022-11-05T01:56:13.588Z,10.77
2022-11-05T01:59:22.658Z,10.71
2022-11-05T02:02:25.392Z,10.74
2022-11-05T02:05:27.449Z,10.73
2022-11-05T02:08:52.520Z,10.76
2022-11-05T02:11:53.915Z,10.83
2022-11-05T02:14:58.656Z,10.80
2022-11-05T02:18:19.169Z,10.84
2022-11-05T02:21:29.812Z,10.81
2022-11-05T02:25:09.612Z,10.86
2022-11-05T02:28:29.395Z,10.80
2022-11-05T02:32:04.002Z,10.75
2022-11-05T02:35:20.331Z,10.83
2022-11-05T02:38:36.196Z,10.81
2022-11-05T02:42:04.995Z,10.78
2022-11-05T02:45:25.628Z,10.77
2022-11-05T02:48:55.516Z,10.80
2022-11-05T02:52:01.546Z,10.82
2022-11-05T02:55:11.426Z,10.78
2022-11-05T02:58:12.947Z,10.80
2022-11-05T03:01:14.406Z,10.77
2022-11-05T03:04:19.227Z,10.74
2022-11-05T03:07:53.255Z,10.70
2022-11-05T03:11:17.562Z,10.72
2022-11-05T03:14:32.180Z,10.70
2022-11-05T03:17:44.992Z,10.78
2022-11-05T03:20:56.997Z,10.70
2022-11-05T03:24:17.076Z,10.63
2022-11-05T03:27:23.769Z,10.59
2022-11-05T03:30:25.503Z,10.56
2022-11-05T03:33:31.158Z,10.48
2022-11-05T03:36:39.608Z,10.43
2022-11-05T03:39:45.860Z,10.34
2022-11-05T03:42:53.267Z,10.29
2022-11-05T03:46:03.367Z,10.25
2022-11-05T03:49:09.394Z,10.30
2022-11-05T03:52:16.219Z,10.29
2022-11-05T03:55:17.897Z,10.28
2022-11-05T03:58:22.371Z,10.31
2022-11-05T04:01:25.333Z,10.33
2022-11-05T04:04:26.790Z,10.34
2022-11-05T04:07:46.799Z,10.40
2022-11-05T04:11:07.076Z,10.33
2022-11-05T04:14:08.474Z,10.34
2022-11-05T04:17:09.998Z,10.32
2022-11-05T04:20:30.162Z,10.34
2022-11-05T04:23:50.528Z,10.32
2022-11-05T04:26:51.908Z,10.28
2022-11-05T04:30:11.948Z,10.30
2022-11-05T04:33:15.859Z,10.24
2022-11-05T04:36:18.115Z,10.32
2022-11-05T04:39:20.580Z,10.29
2022-11-05T04:42:22.392Z,10.14
2022-11-05T04:45:25.148Z,10.21
2022-11-05T04:48:26.531Z,10.15
2022-11-05T04:51:27.922Z,10.10
2022-11-05T04:54:29.425Z,10.10
2022-11-05T04:57:30.816Z,10.06
2022-11-05T05:00:33.397Z,10.08
2022-11-05T05:03:34.990Z,10.07
2022-11-05T05:06:36.444Z,10.13
2022-11-05T05:09:37.851Z,10.11
2022-11-05T05:12:39.502Z,10.14
2022-11-05T05:15:40.932Z,10.14
2022-11-05T05:18:46.249Z,10.22
2022-11-05T05:21:47.984Z,10.33
2022-11-05T05:24:52.726Z,10.34
2022-11-05T05:27:57.390Z,10.25
2022-11-05T05:31:00.658Z,10.26
2022-11-05T05:34:02.456Z,10.14
2022-11-05T05:37:03.897Z,10.07
2022-11-05T05:40:05.670Z,10.06
2022-11-05T05:43:07.065Z,10.05
2022-11-05T05:46:11.588Z,10.11
2022-11-05T05:49:13.608Z,10.11
2022-11-05T05:52:14.982Z,10.11
2022-11-05T05:55:16.967Z,10.08
2022-11-05T05:58:18.469Z,10.02
2022-11-05T06:01:21.042Z,9.89
2022-11-05T06:04:22.615Z,10.09
2022-11-05T06:07:24.035Z,10.28
2022-11-05T06:10:25.733Z,10.25
2022-11-05T06:13:27.773Z,10.38
2022-11-05T06:16:29.551Z,10.31
2022-11-05T06:19:30.999Z,10.24
2022-11-05T06:22:32.382Z,10.30
2022-11-05T06:25:38.455Z,10.26
2022-11-05T06:28:43.167Z,10.20
2022-11-05T06:31:44.666Z,10.22
2022-11-05T06:34:46.070Z,10.08
2022-11-05T06:37:47.500Z,9.91
2022-11-05T06:40:48.902Z,9.84
2022-11-05T06:43:50.537Z,9.81
2022-11-05T06:46:52.032Z,9.92
2022-11-05T06:49:53.407Z,9.85
2022-11-05T06:53:00.394Z,9.71
2022-11-05T06:56:05.799Z,9.68
2022-11-05T06:59:08.446Z,9.69
2022-11-05T07:02:13.420Z,9.75
2022-11-05T07:05:16.095Z,9.86
2022-11-05T07:08:17.880Z,9.77
2022-11-05T07:11:20.080Z,9.92
2022-11-05T07:14:21.536Z,9.88
2022-11-05T07:17:23.005Z,9.82
2022-11-05T07:20:28.222Z,9.86
2022-11-05T07:23:32.198Z,9.83
2022-11-05T07:26:34.757Z,9.80
2022-11-05T07:29:36.264Z,9.79
2022-11-05T07:32:39.528Z,9.90
2022-11-05T07:35:40.931Z,10.00
2022-11-05T07:38:42.356Z,10.06
2022-11-05T07:41:43.824Z,10.06
2022-11-05T07:44:45.210Z,10.06
2022-11-05T07:47:52.571Z,10.05
2022-11-05T07:50:54.067Z,9.98
2022-11-05T07:53:55.477Z,10.07
2022-11-05T07:56:56.882Z,10.10
2022-11-05T07:59:58.285Z,10.03
2022-11-05T08:03:07.121Z,10.06
2022-11-05T08:06:09.555Z,10.16
2022-11-05T08:09:11.166Z,10.17
2022-11-05T08:12:12.625Z,10.24
2022-11-05T08:15:14.133Z,10.19
2022-11-05T08:18:17.758Z,10.21
2022-11-05T08:21:19.156Z,10.12
2022-11-05T08:24:20.531Z,10.17
2022-11-05T08:27:21.974Z,10.14
2022-11-05T08:30:23.702Z,10.16
2022-11-05T08:33:26.177Z,10.27
2022-11-05T08:36:27.590Z,10.36
2022-11-05T08:39:29.034Z,10.33
2022-11-05T08:42:30.433Z,10.33
2022-11-05T08:45:31.896Z,10.29
2022-11-05T08:48:33.367Z,10.29
2022-11-05T08:51:34.835Z,10.34
2022-11-05T08:54:36.349Z,10.43
2022-11-05T08:57:37.798Z,10.39
2022-11-05T09:00:40.020Z,10.44
2022-11-05T09:03:41.509Z,10.51
2022-11-05T09:06:42.938Z,10.52
2022-11-05T09:09:44.320Z,10.49
2022-11-05T09:12:45.715Z,10.53
2022-11-05T09:15:50.682Z,10.58
2022-11-05T09:18:53.275Z,10.60
2022-11-05T09:21:54.748Z,10.55
2022-11-05T09:24:56.206Z,10.63
2022-11-05T09:28:16.767Z,10.67
2022-11-05T09:31:18.383Z,10.68
2022-11-05T09:34:19.763Z,10.80
2022-11-05T09:37:21.965Z,11.02
2022-11-05T09:40:25.413Z,11.00
2022-11-05T09:43:52.012Z,11.06
2022-11-05T09:47:00.984Z,10.99
2022-11-05T09:50:08.669Z,10.96
2022-11-05T09:53:18.627Z,11.04
2022-11-05T09:56:27.067Z,10.96
2022-11-05T09:59:45.532Z,10.93
2022-11-05T10:02:54.862Z,10.93
2022-11-05T10:06:07.874Z,11.21
2022-11-05T10:09:17.841Z,11.12
2022-11-05T10:12:40.911Z,11.31
2022-11-05T10:16:21.414Z,11.15
2022-11-05T10:19:41.839Z,11.19
2022-11-05T10:22:49.142Z,11.22
2022-11-05T10:26:06.473Z,11.16
2022-11-05T10:29:12.878Z,11.30
2022-11-05T10:32:25.528Z,11.42
2022-11-05T10:35:30.746Z,11.73
2022-11-05T10:38:32.838Z,11.66
2022-11-05T10:41:44.883Z,11.45
2022-11-05T10:45:21.858Z,11.58
2022-11-05T10:48:36.953Z,11.67
2022-11-05T10:51:40.828Z,11.72
2022-11-05T10:54:42.534Z,11.94
2022-11-05T10:57:44.031Z,12.13
2022-11-05T11:01:01.617Z,11.92
2022-11-05T11:04:07.949Z,11.90
2022-11-05T11:07:22.996Z,11.97
2022-11-05T11:10:25.573Z,11.99
2022-11-05T11:13:29.975Z,12.04
2022-11-05T11:16:50.289Z,12.20
2022-11-05T11:19:53.466Z,12.30
2022-11-05T11:23:02.676Z,12.22
2022-11-05T11:26:05.319Z,12.42
2022-11-05T11:29:16.000Z,12.42
2022-11-05T11:32:20.399Z,12.52
2022-11-05T11:35:25.241Z,12.60
2022-11-05T11:38:31.166Z,12.76
2022-11-05T11:41:39.126Z,12.72
2022-11-05T11:44:46.560Z,12.82
2022-11-05T11:47:49.299Z,13.01
2022-11-05T11:50:51.039Z,13.01
2022-11-05T11:53:57.671Z,13.10
2022-11-05T11:56:59.672Z,13.26
2022-11-05T12:00:11.706Z,13.35
2022-11-05T12:03:36.463Z,13.65
2022-11-05T12:07:05.619Z,13.64
2022-11-05T12:10:32.388Z,13.41
2022-11-05T12:14:02.242Z,13.24
2022-11-05T12:17:31.608Z,13.26
2022-11-05T12:21:06.405Z,13.31
2022-11-05T12:24:26.880Z,13.53
2022-11-05T12:28:00.596Z,13.32
2022-11-05T12:31:05.022Z,13.23
2022-11-05T12:34:32.588Z,13.36
2022-11-05T12:38:17.648Z,13.52
2022-11-05T12:41:30.062Z,13.49
2022-11-05T12:45:04.875Z,13.57
2022-11-05T12:48:41.207Z,13.53
2022-11-05T12:52:04.455Z,13.23
2022-11-05T12:55:23.841Z,13.08
2022-11-05T12:58:31.389Z,12.99
2022-11-05T13:01:38.202Z,13.12
2022-11-05T13:04:49.709Z,13.27
2022-11-05T13:08:01.459Z,13.38
2022-11-05T13:11:19.363Z,13.56
2022-11-05T13:14:26.743Z,13.28
2022-11-05T13:17:34.114Z,13.34
2022-11-05T13:20:40.015Z,13.08
2022-11-05T13:23:51.536Z,13.07
2022-11-05T13:27:00.382Z,13.01
2022-11-05T13:30:07.450Z,13.01
2022-11-05T13:33:26.339Z,12.88
2022-11-05T13:36:51.510Z,12.89
2022-11-05T13:40:00.582Z,12.84
2022-11-05T13:43:22.693Z,12.88
2022-11-05T13:47:05.932Z,12.70
2022-11-05T13:50:41.559Z,12.62
2022-11-05T13:54:06.052Z,12.64
2022-11-05T13:57:34.515Z,12.54
2022-11-05T14:00:43.287Z,12.39
2022-11-05T14:03:48.283Z,12.33
2022-11-05T14:06:49.828Z,12.26
2022-11-05T14:09:54.983Z,12.36
2022-11-05T14:12:59.125Z,12.38
2022-11-05T14:16:10.413Z,12.39
2022-11-05T14:19:17.725Z,12.45
2022-11-05T14:22:37.452Z,12.60
2022-11-05T14:25:38.958Z,12.64
2022-11-05T14:28:50.965Z,12.64
2022-11-05T14:32:09.302Z,12.44
2022-11-05T14:35:17.244Z,12.21
2022-11-05T14:38:24.708Z,12.13
2022-11-05T14:41:26.200Z,12.02
2022-11-05T14:44:28.912Z,12.15
2022-11-05T14:47:41.980Z,12.11
2022-11-05T14:50:43.595Z,11.91
2022-11-05T14:53:45.186Z,11.88
2022-11-05T14:56:55.946Z,11.78
2022-11-05T15:00:00.705Z,11.71
2022-11-05T15:03:23.894Z,11.66
2022-11-05T15:06:27.053Z,11.55
2022-11-05T15:09:43.745Z,11.52
2022-11-05T15:12:54.013Z,11.58
2022-11-05T15:15:56.452Z,11.51
2022-11-05T15:18:58.633Z,11.44
2022-11-05T15:22:05.417Z,11.49
2022-11-05T15:25:21.231Z,11.40
2022-11-05T15:28:33.839Z,11.28
2022-11-05T15:31:37.715Z,11.34
2022-11-05T15:34:39.160Z,11.31
2022-11-05T15:37:53.425Z,11.23
2022-11-05T15:41:02.358Z,11.24
2022-11-05T15:44:03.842Z,11.29
2022-11-05T15:47:14.214Z,11.28
2022-11-05T15:50:16.071Z,11.19
2022-11-05T15:53:47.361Z,11.11
2022-11-05T15:56:55.716Z,11.08
2022-11-05T15:59:57.233Z,11.13
2022-11-05T16:03:01.544Z,11.17
2022-11-05T16:06:03.098Z,11.21
2022-11-05T16:09:05.171Z,11.17
2022-11-05T16:12:18.579Z,11.16
2022-11-05T16:15:23.929Z,11.12
2022-11-05T16:18:38.562Z,11.07
2022-11-05T16:21:54.315Z,11.03
2022-11-05T16:24:55.819Z,10.94
2022-11-05T16:27:59.194Z,10.88
2022-11-05T16:31:05.105Z,10.82
2022-11-05T16:34:06.557Z,10.80
2022-11-05T16:37:13.446Z,10.80
2022-11-05T16:40:18.577Z,10.77
2022-11-05T16:43:23.313Z,10.71
2022-11-05T16:46:28.522Z,10.70
2022-11-05T16:49:29.917Z,10.59
2022-11-05T16:52:31.437Z,10.51
2022-11-05T16:55:33.381Z,10.47
2022-11-05T16:58:34.826Z,10.46
2022-11-05T17:01:39.226Z,10.43
2022-11-05T17:04:40.721Z,10.37
2022-11-05T17:07:42.115Z,10.41
2022-11-05T17:10:43.694Z,10.42
2022-11-05T17:13:45.124Z,10.32
2022-11-05T17:16:46.518Z,10.31
2022-11-05T17:19:47.923Z,10.31
2022-11-05T17:22:49.314Z,10.31
2022-11-05T17:25:54.906Z,10.31
2022-11-05T17:28:56.319Z,10.25
2022-11-05T17:31:57.747Z,10.18
2022-11-05T17:34:59.136Z,10.03
2022-11-05T17:38:00.510Z,9.92
2022-11-05T17:41:01.912Z,9.77
2022-11-05T17:44:03.421Z,9.61
2022-11-05T17:47:05.063Z,9.51
2022-11-05T17:50:08.943Z,9.54
2022-11-05T17:53:12.221Z,9.53
2022-11-05T17:56:24.598Z,9.49
2022-11-05T17:59:30.782Z,9.36
2022-11-05T18:02:33.904Z,9.29
2022-11-05T18:05:35.559Z,9.28
2022-11-05T18:08:37.139Z,9.30
2022-11-05T18:11:39.911Z,9.23
2022-11-05T18:14:41.336Z,9.29
2022-11-05T18:17:45.659Z,9.33
2022-11-05T18:20:47.116Z,9.26
2022-11-05T18:23:48.543Z,9.17
2022-11-05T18:26:51.123Z,9.12
2022-11-05T18:29:52.562Z,9.19
2022-11-05T18:32:54.125Z,9.21
2022-11-05T18:35:55.508Z,9.23
2022-11-05T18:38:59.126Z,9.24
2022-11-05T18:42:00.717Z,9.18
2022-11-05T18:45:02.129Z,9.09
2022-11-05T18:48:04.304Z,9.07
2022-11-05T18:51:10.552Z,9.05
2022-11-05T18:54:12.256Z,9.09
2022-11-05T18:57:13.647Z,9.11
2022-11-05T19:00:15.768Z,9.11
2022-11-05T19:03:17.240Z,9.14
2022-11-05T19:06:18.668Z,9.06
2022-11-05T19:09:20.827Z,9.01
2022-11-05T19:12:22.274Z,9.05
2022-11-05T19:15:23.667Z,9.02
2022-11-05T19:18:25.171Z,8.98
2022-11-05T19:21:27.953Z,9.02
2022-11-05T19:24:29.540Z,9.04
2022-11-05T19:27:30.956Z,8.95
2022-11-05T19:30:32.440Z,8.91
2022-11-05T19:33:33.999Z,8.92
2022-11-05T19:36:35.408Z,8.95
2022-11-05T19:39:36.878Z,8.99
2022-11-05T19:42:38.290Z,9.02
2022-11-05T19:45:45.186Z,9.08
2022-11-05T19:48:47.185Z,9.14
2022-11-05T19:51:48.583Z,9.19
2022-11-05T19:54:50.076Z,9.20
2022-11-05T19:57:51.576Z,9.20
2022-11-05T20:00:55.867Z,9.21
2022-11-05T20:03:58.791Z,9.19
2022-11-05T20:07:00.357Z,9.09
2022-11-05T20:10:01.884Z,9.05
2022-11-05T20:13:03.800Z,8.97
2022-11-05T20:16:05.615Z,8.99
2022-11-05T20:19:13.111Z,9.01
2022-11-05T20:22:14.543Z,8.99
2022-11-05T20:25:16.086Z,8.95
2022-11-05T20:28:17.507Z,8.85
2022-11-05T20:31:19.596Z,8.76
2022-11-05T20:34:20.993Z,8.73
2022-11-05T20:37:22.489Z,8.71
2022-11-05T20:40:23.938Z,8.70
2022-11-05T20:43:30.168Z,8.75
2022-11-05T20:46:32.820Z,8.76
2022-11-05T20:49:34.285Z,8.79
2022-11-05T20:52:35.688Z,8.75
2022-11-05T20:55:45.782Z,8.76
2022-11-05T20:58:47.348Z,8.79
2022-11-05T21:01:50.444Z,8.78
2022-11-05T21:04:52.005Z,8.76
2022-11-05T21:07:53.389Z,8.71
2022-11-05T21:10:56.075Z,8.62
2022-11-05T21:13:57.478Z,8.62
2022-11-05T21:16:58.866Z,8.56
2022-11-05T21:20:00.271Z,8.54
2022-11-05T21:23:01.659Z,8.51
2022-11-05T21:26:05.167Z,8.54
2022-11-05T21:29:07.640Z,8.52
2022-11-05T21:32:09.723Z,8.57
2022-11-05T21:35:11.162Z,8.51
2022-11-05T21:38:15.846Z,8.50
2022-11-05T21:41:17.469Z,8.42
2022-11-05T21:44:19.011Z,8.40
2022-11-05T21:47:20.428Z,8.35
2022-11-05T21:50:44.673Z,8.34
2022-11-05T21:54:05.033Z,8.21
2022-11-05T21:57:31.861Z,8.16
2022-11-05T22:00:33.302Z,8.05
2022-11-05T22:03:34.701Z,7.95
2022-11-05T22:06:36.114Z,7.86
2022-11-05T22:09:38.352Z,7.87
2022-11-05T22:12:39.808Z,7.83
2022-11-05T22:15:41.490Z,7.80
2022-11-05T22:18:42.873Z,7.78
2022-11-05T22:21:44.421Z,7.75
2022-11-05T22:24:46.256Z,7.84
2022-11-05T22:27:47.694Z,7.86
2022-11-05T22:30:49.097Z,7.79
2022-11-05T22:33:50.846Z,7.78
2022-11-05T22:36:52.659Z,7.81
2022-11-05T22:39:54.087Z,7.83
2022-11-05T22:42:55.516Z,7.94
2022-11-05T22:46:03.517Z,8.00
2022-11-05T22:49:06.253Z,8.00
2022-11-05T22:52:07.658Z,7.98
2022-11-05T22:55:09.372Z,7.91
2022-11-05T22:58:11.100Z,7.93
2022-11-05T23:01:13.875Z,7.88
2022-11-05T23:04:15.797Z,7.83
2022-11-05T23:07:36.170Z,7.80
2022-11-05T23:10:57.184Z,7.74
2022-11-05T23:13:58.575Z,7.71
2022-11-05T23:17:18.370Z,7.72
2022-11-05T23:20:41.488Z,7.71
2022-11-05T23:24:01.214Z,7.68
2022-11-05T23:27:02.701Z,7.72
2022-11-05T23:30:13.723Z,7.73
2022-11-05T23:33:15.098Z,7.69
2022-11-05T23:36:35.215Z,7.75
2022-11-05T23:39:42.236Z,7.78
2022-11-05T23:43:03.572Z,7.80
2022-11-05T23:46:23.967Z,7.79
2022-11-05T23:49:25.574Z,7.75
2022-11-05T23:52:26.952Z,7.60
2022-11-05T23:55:28.379Z,7.53
2022-11-05T23:58:29.884Z,7.44
